PAKTPAWG

Guest
Details From PAKT - KETCHIKAN INTL
To PAWG - WRANGELL
Flight Number -
Tags generated
Created
Modified
Stats Distance 74 nm / 138 km
Max Altitude 3,400 ft / 1,036 m
Waypoints 3
Social Downloads 1
Likes 0
Share VATSIM

Download

Looking for another format? Having issues loading an existing format? Contact us
Advertisement - Login to hide

Notes

Basic altitude profile: - Ascent Rate: 800ft/min - Ascent Speed: 120kts - Cruise Altitude: 3200ft - Cruise Speed: 210kts - Descent Rate: 900ft/min - Descent Speed: 110kts Options: - Use NATs: yes - Use PACOTS: yes - Use low airways: yes - Use high airways: yes

Route

PAKT GESTI PAWG

ID Type Via Altitude Latitude Longitude Leg Dist Tot Dist Heading (true) Name
O PAKT APT - 0 ft / 0 m 55.35554˚ -131.71374˚ - 0 nm - KETCHIKAN INTL
GESTI FIX - 3,400 ft / 1,036 m 55.43263˚ -131.96400˚ 9 nm 9 nm 299° / 298° -
O PAWG APT - 0 ft / 0 m 56.48432˚ -132.36983˚ 64 nm 74 nm 348° / 348° WRANGELL

Altitude Profile

Advertisement - Login to hide

PAKT

Details ICAO PAKT (KTN)
Name KETCHIKAN INTL
Region USA (Alaska)
Timezone Unknown (UTC+0.0)
Stats Elevation 88 ft / 27 m (AMSL)
Location 55.355545° -131.713737°
Runways 1
Magnetic Variation 18.429° E

METAR

PAKT 240953Z AUTO 31005KT 10SM OVC038 08/07 A2995

Decode

TAF

PAKT 240533Z 2406/2506 14006KT P6SM VCSH FEW008 BKN035 OVC070 TEMPO 2406/2410 5SM -SHRA BR BKN008 OVC035 FM241700 13008KT P6SM VCSH BKN040 AMD LTD TO CLD VIS AND WIND 2406/2415

Decode

Departure Runways

ID Width Length Bearing (true) Bearing (mag) Surface Threshold Offset Overrun Length
11 150 ft / 46 m 7,485 ft / 2,281 m 135.66° 117.23° Asphalt 0 ft / 0 m 200 ft / 61 m
29 150 ft / 46 m 7,485 ft / 2,281 m 315.68° 297.25° Asphalt 0 ft / 0 m 100 ft / 30 m

PAWG

Details ICAO PAWG (WRG)
Name WRANGELL
Region USA (Alaska)
Timezone America/Juneau (UTC-8.0)
Stats Elevation 44 ft / 13 m (AMSL)
Location 56.484324° -132.369832°
Runways 1
Magnetic Variation 18.696° E

METAR

Not found

TAF

PAWG 240533Z 2406/2506 12005KT P6SM VCSH BKN035 OVC050 TEMPO 2406/2410 00000KT 5SM -SHRA BR FEW005 BKN015 OVC035 FM241900 09006KT P6SM VCSH SCT035 BKN080 AMD LTD TO CLD VIS AND WIND 2406/2415

Decode

Destination Runways

ID Width Length Bearing (true) Bearing (mag) Surface Threshold Offset Overrun Length
10 150 ft / 46 m 5,983 ft / 1,824 m 121.43° 102.73° Asphalt 0 ft / 0 m 0 ft / 0 m
28 150 ft / 46 m 5,983 ft / 1,824 m 301.45° 282.75° Asphalt 0 ft / 0 m 0 ft / 0 m

Approach Navaids

Runway Type Ident Frequency Range Bearing (true) Bearing (mag) Slope Elevation
10 Localiser IRGL 108.50 MHz 18 nm / 33 km 112.18° 93.48° - 40 ft / 12 m (AMSL)
10 DME IRGL 108.50 MHz 18 nm / 33 km - - - 58 ft / 18 m (AMSL)

Popular Alternatives